createdAt,value
2023-03-16T00:01:58.936Z,99591.03
2023-03-16T00:04:39.450Z,99585.19
2023-03-16T00:07:23.960Z,99590.38
2023-03-16T00:10:07.741Z,99598.06
2023-03-16T00:12:48.640Z,99593.38
2023-03-16T00:15:19.411Z,99601.94
2023-03-16T00:17:48.913Z,99602.34
2023-03-16T00:20:18.551Z,99611.19
2023-03-16T00:22:46.996Z,99583.66
2023-03-16T00:25:15.053Z,99599.16
2023-03-16T00:27:51.696Z,99605.47
2023-03-16T00:30:20.000Z,99601.13
2023-03-16T00:32:47.703Z,99604.19
2023-03-16T00:35:18.466Z,99598.16
2023-03-16T00:37:47.634Z,99622.63
2023-03-16T00:40:17.109Z,99593.84
2023-03-16T00:43:11.996Z,99615.84
2023-03-16T00:45:45.687Z,99613.66
2023-03-16T00:48:13.898Z,99614.72
2023-03-16T00:50:43.320Z,99604.44
2023-03-16T00:53:12.112Z,99619.56
2023-03-16T00:56:09.733Z,99619.69
2023-03-16T00:58:39.734Z,99626.00
2023-03-16T01:01:19.310Z,99630.31
2023-03-16T01:03:50.267Z,99618.72
2023-03-16T01:06:20.813Z,99620.03
2023-03-16T01:08:53.967Z,99625.97
2023-03-16T01:11:23.226Z,99629.72
2023-03-16T01:13:54.515Z,99630.44
2023-03-16T01:16:24.695Z,99613.06
2023-03-16T01:18:53.972Z,99632.03
2023-03-16T01:21:22.237Z,99636.50
2023-03-16T01:23:55.738Z,99629.22
2023-03-16T01:26:34.877Z,99615.81
2023-03-16T01:29:29.651Z,99628.38
2023-03-16T01:32:16.693Z,99635.06
2023-03-16T01:34:50.176Z,99627.22
2023-03-16T01:37:29.142Z,99630.88
2023-03-16T01:40:23.231Z,99638.84
2023-03-16T01:43:12.055Z,99605.06
2023-03-16T01:46:19.781Z,99647.00
2023-03-16T01:49:14.851Z,99633.41
2023-03-16T01:51:52.936Z,99638.13
2023-03-16T01:54:32.678Z,99647.09
2023-03-16T01:57:12.970Z,99633.84
2023-03-16T02:03:22.734Z,99646.13
2023-03-16T02:06:16.198Z,99644.00
2023-03-16T02:08:55.465Z,99642.63
2023-03-16T02:15:31.339Z,99647.03
2023-03-16T02:18:00.400Z,99644.13
2023-03-16T02:20:42.910Z,99655.06
2023-03-16T02:23:20.275Z,99650.06
2023-03-16T02:26:06.358Z,99667.19
2023-03-16T02:29:53.729Z,99660.47
2023-03-16T02:32:32.230Z,99667.56
2023-03-16T02:35:07.843Z,99671.06
2023-03-16T02:37:35.763Z,99674.72
2023-03-16T02:40:38.021Z,99677.47
2023-03-16T02:43:28.223Z,99680.03
2023-03-16T02:46:22.230Z,99677.22
2023-03-16T02:49:34.424Z,99681.53
2023-03-16T02:52:04.810Z,99680.84
2023-03-16T02:54:34.992Z,99659.81
2023-03-16T02:57:05.141Z,99677.06
2023-03-16T02:59:43.027Z,99674.41
2023-03-16T03:02:11.617Z,99661.00
2023-03-16T03:04:39.486Z,99683.03
2023-03-16T03:07:09.875Z,99693.16
2023-03-16T03:09:55.225Z,99688.81
2023-03-16T03:12:24.173Z,99689.91
2023-03-16T03:14:52.838Z,99679.06
2023-03-16T03:17:22.057Z,99688.28
2023-03-16T03:19:49.735Z,99691.88
2023-03-16T03:22:18.808Z,99684.56
2023-03-16T03:24:47.763Z,99690.88
2023-03-16T03:27:15.158Z,99706.56
2023-03-16T03:29:44.796Z,99708.97
2023-03-16T03:32:13.622Z,99710.63
2023-03-16T03:34:45.197Z,99711.53
2023-03-16T03:37:16.746Z,99714.56
2023-03-16T03:39:48.360Z,99715.94
2023-03-16T03:42:25.139Z,99710.09
2023-03-16T03:44:54.279Z,99712.06
2023-03-16T03:47:22.985Z,99721.59
2023-03-16T03:50:02.290Z,99697.56
2023-03-16T03:52:35.859Z,99722.28
2023-03-16T03:55:04.371Z,99726.34
2023-03-16T03:57:31.997Z,99725.25
2023-03-16T04:00:01.823Z,99723.19
2023-03-16T04:02:50.146Z,99728.22
2023-03-16T04:08:26.846Z,99749.63
2023-03-16T04:10:58.169Z,99751.31
2023-03-16T04:13:26.841Z,99751.91
2023-03-16T04:20:56.628Z,99759.09
2023-03-16T04:23:26.032Z,99757.94
2023-03-16T04:26:00.632Z,99765.78
2023-03-16T04:28:29.274Z,99772.03
2023-03-16T04:31:07.402Z,99763.38
2023-03-16T04:33:43.914Z,99778.09
2023-03-16T04:36:12.771Z,99759.09
2023-03-16T04:38:47.497Z,99779.28
2023-03-16T04:45:51.246Z,99784.72
2023-03-16T04:48:25.940Z,99777.44
2023-03-16T04:50:58.674Z,99788.66
2023-03-16T04:53:34.723Z,99781.63
2023-03-16T04:56:19.792Z,99784.22
2023-03-16T04:58:57.160Z,99802.97
2023-03-16T05:01:29.682Z,99791.75
2023-03-16T05:04:29.174Z,99801.53
2023-03-16T05:11:57.453Z,99809.69
2023-03-16T05:15:00.656Z,99802.16
2023-03-16T05:18:45.634Z,99809.78
2023-03-16T05:22:26.783Z,99816.50
2023-03-16T05:26:31.846Z,99824.47
2023-03-16T05:29:56.061Z,99825.00
2023-03-16T05:32:31.504Z,99826.28
2023-03-16T05:35:13.617Z,99831.03
2023-03-16T05:41:05.715Z,99838.44
2023-03-16T05:43:50.586Z,99847.88
2023-03-16T05:46:29.517Z,99844.66
2023-03-16T05:49:05.841Z,99812.53
2023-03-16T05:51:35.376Z,99851.41
2023-03-16T05:54:05.833Z,99847.44
2023-03-16T05:56:53.740Z,99842.69
2023-03-16T05:59:22.753Z,99856.28
2023-03-16T06:01:54.560Z,99840.34
2023-03-16T06:04:25.693Z,99829.50
2023-03-16T06:07:52.240Z,99865.22
2023-03-16T06:10:21.511Z,99848.19
2023-03-16T06:12:49.288Z,99846.44
2023-03-16T06:16:26.345Z,99873.53
2023-03-16T06:19:14.691Z,99873.13
2023-03-16T06:21:52.033Z,99874.19
2023-03-16T06:24:32.588Z,99854.09
2023-03-16T06:27:02.336Z,99877.16
2023-03-16T06:30:20.358Z,99886.22
2023-03-16T06:32:52.619Z,99900.53
2023-03-16T06:35:29.234Z,99849.75
2023-03-16T06:38:29.000Z,99848.53
2023-03-16T06:41:07.721Z,99895.41
2023-03-16T06:43:36.971Z,99899.94
2023-03-16T06:46:06.024Z,99913.25
2023-03-16T06:48:35.780Z,99915.25
2023-03-16T06:51:04.677Z,99912.91
2023-03-16T06:53:32.879Z,99894.09
2023-03-16T06:56:01.485Z,99911.44
2023-03-16T06:58:32.388Z,99915.56
2023-03-16T07:01:03.971Z,99915.84
2023-03-16T07:03:31.618Z,99927.50
2023-03-16T07:06:07.014Z,99923.50
2023-03-16T07:08:40.624Z,99921.81
2023-03-16T07:11:39.775Z,99919.28
2023-03-16T07:14:07.712Z,99924.72
2023-03-16T07:16:40.166Z,99926.94
2023-03-16T07:19:21.114Z,99932.22
2023-03-16T07:22:00.233Z,99929.66
2023-03-16T07:24:36.521Z,99932.88
2023-03-16T07:32:50.394Z,99948.41
2023-03-16T07:35:27.285Z,99941.53
2023-03-16T07:38:24.748Z,99952.63
2023-03-16T07:40:59.153Z,99955.03
2023-03-16T07:43:27.092Z,99966.19
2023-03-16T07:45:56.813Z,99974.09
2023-03-16T07:48:26.253Z,99961.69
2023-03-16T07:50:58.068Z,99968.88
2023-03-16T07:53:25.626Z,99954.13
2023-03-16T07:56:06.768Z,99953.69
2023-03-16T07:58:37.539Z,99969.88
2023-03-16T08:01:05.470Z,99972.63
2023-03-16T08:03:34.737Z,99979.16
2023-03-16T08:06:03.655Z,99974.44
2023-03-16T08:08:32.381Z,99966.28
2023-03-16T08:11:02.697Z,99972.06
2023-03-16T08:13:56.855Z,99986.34
2023-03-16T08:16:36.827Z,99973.50
2023-03-16T08:20:09.420Z,99987.56
2023-03-16T08:23:07.311Z,99988.47
2023-03-16T08:25:45.667Z,99985.84
2023-03-16T08:29:07.893Z,99997.91
2023-03-16T08:31:38.483Z,100001.34
2023-03-16T08:34:24.699Z,99979.06
2023-03-16T08:36:54.313Z,99988.22
2023-03-16T08:39:23.260Z,99975.56
2023-03-16T08:41:51.269Z,100007.00
2023-03-16T08:44:42.746Z,100000.03
2023-03-16T08:47:11.056Z,100003.13
2023-03-16T08:49:42.050Z,100014.06
2023-03-16T08:52:23.178Z,100001.28
2023-03-16T09:37:44.950Z,100020.03
2023-03-16T09:40:24.894Z,100024.34
2023-03-16T09:43:19.123Z,100029.66
2023-03-16T09:45:58.776Z,100020.47
2023-03-16T09:48:29.516Z,100034.81
2023-03-16T09:51:00.097Z,100026.91
2023-03-16T09:53:33.630Z,100040.16
2023-03-16T09:56:05.157Z,100048.03
2023-03-16T09:58:33.185Z,100047.69
2023-03-16T10:01:01.050Z,100049.72
2023-03-16T10:03:47.149Z,100047.69
2023-03-16T10:06:16.380Z,100042.66
2023-03-16T10:08:53.203Z,100045.34
2023-03-16T10:11:45.188Z,100041.81
2023-03-16T10:14:59.748Z,100040.06
2023-03-16T10:17:36.655Z,100046.13
2023-03-16T10:20:17.764Z,100036.91
2023-03-16T10:22:48.161Z,100044.78
2023-03-16T10:25:50.051Z,100046.59
2023-03-16T10:28:22.344Z,100042.25
2023-03-16T10:30:57.059Z,100038.69
2023-03-16T10:33:28.024Z,100037.97
2023-03-16T10:35:58.409Z,100044.50
2023-03-16T10:38:38.984Z,100044.91
2023-03-16T10:41:21.623Z,100043.47
2023-03-16T10:44:07.880Z,100044.75
2023-03-16T10:46:48.846Z,100041.81
2023-03-16T10:49:42.328Z,100037.63
2023-03-16T10:52:24.073Z,100042.31
2023-03-16T10:54:58.505Z,100015.59
2023-03-16T10:57:35.150Z,100037.66
2023-03-16T11:00:23.523Z,100027.84
2023-03-16T11:02:54.500Z,100033.66
2023-03-16T11:05:35.150Z,100041.53
2023-03-16T11:08:10.790Z,100026.91
2023-03-16T11:10:54.691Z,100037.53
2023-03-16T11:13:26.502Z,100024.41
2023-03-16T11:16:02.859Z,100023.25
2023-03-16T11:18:39.294Z,100016.44
2023-03-16T11:21:12.869Z,100029.56
2023-03-16T11:23:48.674Z,100016.31
2023-03-16T11:26:28.200Z,100019.22
2023-03-16T11:29:16.042Z,100030.75
2023-03-16T11:31:58.034Z,100027.75
2023-03-16T11:34:54.560Z,100036.75
2023-03-16T11:37:52.904Z,100035.38
2023-03-16T11:40:41.432Z,100027.16
2023-03-16T11:43:54.033Z,100030.91
2023-03-16T11:46:42.367Z,100024.75
2023-03-16T11:49:48.343Z,100019.28
2023-03-16T11:57:49.593Z,100031.53
2023-03-16T12:00:48.012Z,100033.41
2023-03-16T12:03:54.918Z,100026.91
2023-03-16T12:06:25.997Z,100017.28
2023-03-16T12:09:10.978Z,100027.47
2023-03-16T12:12:09.998Z,100016.03
2023-03-16T12:14:44.645Z,100023.84
2023-03-16T12:17:41.060Z,100026.75
2023-03-16T12:20:37.377Z,100030.41
2023-03-16T12:23:25.716Z,100017.56
2023-03-16T12:26:03.726Z,100037.34
2023-03-16T12:28:33.657Z,100035.50
2023-03-16T12:31:20.167Z,100025.38
2023-03-16T12:34:34.837Z,100033.19
2023-03-16T12:37:18.544Z,100035.38
2023-03-16T12:40:10.650Z,100024.75
2023-03-16T12:43:12.045Z,100029.63
2023-03-16T12:46:25.373Z,100038.66
2023-03-16T12:49:02.824Z,100034.09
2023-03-16T12:51:39.016Z,100037.75
2023-03-16T12:54:19.347Z,100030.69
2023-03-16T12:56:50.862Z,100049.00
2023-03-16T12:59:24.094Z,100018.03
2023-03-16T13:01:58.771Z,100043.13
2023-03-16T13:04:41.714Z,100048.72
2023-03-16T13:07:17.568Z,100048.88
2023-03-16T13:09:49.650Z,100048.50
2023-03-16T13:12:38.426Z,100047.22
2023-03-16T13:15:22.435Z,100046.66
2023-03-16T13:18:39.321Z,100041.47
2023-03-16T13:21:23.131Z,100057.00
2023-03-16T13:23:59.008Z,100051.03
2023-03-16T13:26:41.207Z,100044.91
2023-03-16T13:29:30.311Z,100045.22
2023-03-16T13:32:13.905Z,100060.84
2023-03-16T13:34:53.914Z,100062.94
2023-03-16T13:37:24.649Z,100060.72
2023-03-16T13:40:00.714Z,100068.41
2023-03-16T13:42:32.898Z,100070.84
2023-03-16T13:45:14.568Z,100061.28
2023-03-16T13:47:48.424Z,100062.91
2023-03-16T13:50:19.603Z,100051.91
2023-03-16T13:53:04.045Z,100067.25
2023-03-16T13:55:37.389Z,100057.25
2023-03-16T13:58:05.837Z,100069.63
2023-03-16T14:00:37.930Z,100074.00
2023-03-16T14:03:16.422Z,100065.16
2023-03-16T14:05:51.903Z,100047.22
2023-03-16T14:08:20.713Z,100063.50
2023-03-16T14:10:54.700Z,100053.16
2023-03-16T14:13:29.276Z,100077.69
2023-03-16T14:16:18.495Z,100065.84
2023-03-16T14:19:01.185Z,100067.94
2023-03-16T14:21:35.939Z,100070.75
2023-03-16T14:24:17.829Z,100064.44
2023-03-16T14:26:51.178Z,100065.88
2023-03-16T14:29:27.689Z,100060.94
2023-03-16T14:31:57.237Z,100067.09
2023-03-16T14:34:39.934Z,100064.91
2023-03-16T14:37:13.821Z,100072.63
2023-03-16T14:39:43.700Z,100075.66
2023-03-16T14:42:31.720Z,100070.91
2023-03-16T14:45:08.805Z,100074.53
2023-03-16T14:47:44.184Z,100074.31
2023-03-16T14:50:30.065Z,100083.00
2023-03-16T14:52:58.608Z,100080.28
2023-03-16T14:55:27.245Z,100097.34
2023-03-16T14:57:56.320Z,100089.91
2023-03-16T15:00:25.676Z,100086.19
2023-03-16T15:03:08.430Z,100089.91
2023-03-16T15:05:39.172Z,100100.25
2023-03-16T15:08:28.783Z,100095.56
2023-03-16T15:10:59.868Z,100105.53
2023-03-16T15:13:47.115Z,100099.50
2023-03-16T15:16:16.073Z,100108.28
2023-03-16T15:18:58.405Z,100107.81
2023-03-16T15:21:32.709Z,100105.56
2023-03-16T15:24:02.993Z,100111.09
2023-03-16T15:26:33.648Z,100115.50
2023-03-16T15:29:07.011Z,100117.41
2023-03-16T15:32:01.009Z,100118.63
2023-03-16T15:34:29.273Z,100111.81
2023-03-16T15:37:27.262Z,100123.66
2023-03-16T15:40:45.814Z,100118.13
2023-03-16T15:43:21.000Z,100114.59
2023-03-16T15:46:02.363Z,100122.63
2023-03-16T15:48:36.376Z,100122.19
2023-03-16T15:51:19.063Z,100131.03
2023-03-16T15:54:09.736Z,100127.50
2023-03-16T15:56:53.797Z,100122.09
2023-03-16T15:59:24.941Z,100141.25
2023-03-16T16:02:33.361Z,100151.13
2023-03-16T16:05:13.398Z,100135.13
2023-03-16T16:07:42.368Z,100149.75
2023-03-16T16:10:15.022Z,100152.75
2023-03-16T16:12:54.790Z,100142.41
2023-03-16T16:15:32.768Z,100154.66
2023-03-16T16:18:24.104Z,100158.44
2023-03-16T16:20:54.164Z,100166.16
2023-03-16T16:23:25.984Z,100166.06
2023-03-16T16:26:03.024Z,100174.91
2023-03-16T16:28:35.668Z,100165.88
2023-03-16T16:31:12.796Z,100180.00
2023-03-16T16:33:50.609Z,100179.53
2023-03-16T16:36:21.523Z,100177.09
2023-03-16T16:38:58.273Z,100175.44
2023-03-16T16:41:32.986Z,100188.88
2023-03-16T16:44:09.121Z,100187.22
2023-03-16T16:46:45.578Z,100206.72
2023-03-16T16:49:24.690Z,100192.59
2023-03-16T16:51:55.660Z,100192.25
2023-03-16T16:54:25.828Z,100203.03
2023-03-16T16:56:57.425Z,100214.44
2023-03-16T16:59:37.968Z,100217.78
2023-03-16T17:02:46.307Z,100230.69
2023-03-16T17:05:26.505Z,100224.66
2023-03-16T17:07:55.489Z,100215.72
2023-03-16T17:10:27.269Z,100238.34
2023-03-16T17:13:26.823Z,100236.88
2023-03-16T17:15:56.598Z,100239.22
2023-03-16T17:18:46.625Z,100236.41
2023-03-16T17:21:20.015Z,100243.75
2023-03-16T17:23:52.992Z,100252.28
2023-03-16T17:26:42.867Z,100244.63
2023-03-16T17:29:27.285Z,100249.19
2023-03-16T17:32:14.692Z,100250.31
2023-03-16T17:34:45.709Z,100246.38
2023-03-16T17:37:20.910Z,100255.84
2023-03-16T17:39:52.126Z,100261.59
2023-03-16T17:42:23.718Z,100259.69
2023-03-16T17:44:56.575Z,100253.88
2023-03-16T17:47:33.359Z,100263.41
2023-03-16T17:50:02.723Z,100272.41
2023-03-16T17:53:06.957Z,100272.97
2023-03-16T17:55:36.845Z,100276.97
2023-03-16T17:58:23.299Z,100270.25
2023-03-16T18:00:54.357Z,100289.97
2023-03-16T18:03:48.180Z,100288.97
2023-03-16T18:06:47.041Z,100296.91
2023-03-16T18:09:21.430Z,100278.56
2023-03-16T18:11:52.305Z,100301.75
2023-03-16T18:14:35.264Z,100292.03
2023-03-16T18:17:31.089Z,100305.22
2023-03-16T18:20:00.549Z,100296.56
2023-03-16T18:22:53.501Z,100308.84
2023-03-16T18:25:39.311Z,100307.16
2023-03-16T18:28:10.086Z,100305.28
2023-03-16T18:30:40.072Z,100316.84
2023-03-16T18:33:40.557Z,100318.81
2023-03-16T18:36:19.595Z,100308.41
2023-03-16T18:39:19.068Z,100320.16
2023-03-16T18:42:18.272Z,100319.59
2023-03-16T18:44:51.258Z,100294.25
2023-03-16T18:47:24.262Z,100295.53
2023-03-16T18:50:46.046Z,100315.66
2023-03-16T18:53:27.764Z,100309.31
2023-03-16T19:00:17.899Z,100310.28
2023-03-16T19:02:55.635Z,100302.31
2023-03-16T19:05:36.859Z,100319.59
2023-03-16T19:08:15.133Z,100317.38
2023-03-16T19:10:53.445Z,100331.72
2023-03-16T19:13:22.639Z,100320.91
2023-03-16T19:15:56.110Z,100327.28
2023-03-16T19:18:29.689Z,100336.53
2023-03-16T19:20:59.127Z,100341.38
2023-03-16T19:23:31.046Z,100341.09
2023-03-16T19:26:12.164Z,100331.41
2023-03-16T19:28:42.993Z,100320.16
2023-03-16T19:31:33.797Z,100333.94
2023-03-16T19:34:03.394Z,100337.31
2023-03-16T19:36:34.319Z,100329.69
2023-03-16T19:39:04.512Z,100338.41
2023-03-16T19:41:45.036Z,100341.97
2023-03-16T19:44:24.218Z,100342.22
2023-03-16T19:46:58.574Z,100348.69
2023-03-16T19:49:28.373Z,100339.97
2023-03-16T19:51:59.027Z,100361.34
2023-03-16T19:54:36.130Z,100338.00
2023-03-16T19:57:13.921Z,100342.75
2023-03-16T19:59:44.652Z,100327.72
2023-03-16T20:02:43.449Z,100363.59
2023-03-16T20:05:28.242Z,100346.13
2023-03-16T20:08:02.301Z,100360.78
2023-03-16T20:10:39.272Z,100368.06
2023-03-16T20:13:20.720Z,100370.16
2023-03-16T20:15:52.910Z,100365.81
2023-03-16T20:18:31.347Z,100368.34
2023-03-16T20:21:01.139Z,100342.91
2023-03-16T20:23:30.288Z,100367.47
2023-03-16T20:26:01.969Z,100371.00
2023-03-16T20:28:36.380Z,100366.50
2023-03-16T20:31:08.762Z,100352.28
2023-03-16T20:33:40.031Z,100377.91
2023-03-16T20:36:13.501Z,100383.25
2023-03-16T20:38:43.796Z,100317.53
2023-03-16T20:41:30.209Z,100378.44
2023-03-16T20:44:25.790Z,100380.94
2023-03-16T20:46:55.555Z,100389.13
2023-03-16T20:49:44.111Z,100377.41
2023-03-16T20:52:52.813Z,100390.66
2023-03-16T20:55:29.581Z,100384.31
2023-03-16T20:58:01.708Z,100367.69
2023-03-16T21:00:44.330Z,100377.84
2023-03-16T21:03:22.895Z,100386.16
2023-03-16T21:05:53.240Z,100386.88
2023-03-16T21:08:20.828Z,100391.34
2023-03-16T21:10:52.697Z,100364.59
2023-03-16T21:13:30.250Z,100402.59
2023-03-16T21:16:03.739Z,100389.94
2023-03-16T21:18:31.501Z,100382.44
2023-03-16T21:20:59.877Z,100387.31
2023-03-16T21:23:31.513Z,100401.81
2023-03-16T21:26:01.695Z,100390.69
2023-03-16T21:28:34.778Z,100393.03
2023-03-16T21:31:06.397Z,100397.44
2023-03-16T21:33:45.858Z,100405.00
2023-03-16T21:36:17.845Z,100395.53
2023-03-16T21:38:47.418Z,100399.31
2023-03-16T21:41:15.582Z,100391.97
2023-03-16T21:43:44.717Z,100405.88
2023-03-16T21:46:23.324Z,100403.22
2023-03-16T21:48:55.101Z,100404.69
2023-03-16T21:51:29.184Z,100401.59
2023-03-16T21:53:56.756Z,100394.91
2023-03-16T21:56:26.265Z,100415.41
2023-03-16T21:58:55.014Z,100407.25
2023-03-16T22:01:29.707Z,100406.28
2023-03-16T22:04:02.987Z,100402.44
2023-03-16T22:06:34.102Z,100398.53
2023-03-16T22:09:04.305Z,100390.94
2023-03-16T22:11:32.847Z,100393.22
2023-03-16T22:14:01.199Z,100383.69
2023-03-16T22:16:33.619Z,100400.25
2023-03-16T22:19:01.402Z,100407.34
2023-03-16T22:21:40.684Z,100407.03
2023-03-16T22:24:25.085Z,100409.91
2023-03-16T22:26:54.489Z,100411.16
2023-03-16T22:29:33.647Z,100376.13
2023-03-16T22:32:18.865Z,100412.53
2023-03-16T22:34:56.261Z,100407.31
2023-03-16T22:37:29.147Z,100378.09
2023-03-16T22:40:02.490Z,100399.59
2023-03-16T22:42:39.981Z,100399.00
2023-03-16T22:45:19.177Z,100412.06
2023-03-16T22:47:47.961Z,100399.41
2023-03-16T22:50:22.077Z,100401.59
2023-03-16T22:52:55.145Z,100404.88
2023-03-16T22:55:28.636Z,100415.75
2023-03-16T22:58:31.117Z,100402.63
2023-03-16T23:01:32.004Z,100414.09
2023-03-16T23:04:47.800Z,100411.69
2023-03-16T23:07:23.223Z,100414.50
2023-03-16T23:10:03.497Z,100416.56
2023-03-16T23:12:32.461Z,100417.78
2023-03-16T23:15:19.321Z,100432.53
2023-03-16T23:17:47.346Z,100396.06
2023-03-16T23:20:28.687Z,100432.06
2023-03-16T23:23:02.822Z,100435.44
2023-03-16T23:25:33.579Z,100415.16
2023-03-16T23:28:03.004Z,100424.59
2023-03-16T23:30:47.990Z,100438.94
2023-03-16T23:33:22.310Z,100420.13
2023-03-16T23:35:53.475Z,100424.25
2023-03-16T23:38:21.581Z,100435.13
2023-03-16T23:40:51.440Z,100435.47
2023-03-16T23:43:24.892Z,100402.47
2023-03-16T23:45:57.684Z,100442.75
2023-03-16T23:48:27.058Z,100429.22
2023-03-16T23:51:43.786Z,100442.97
2023-03-16T23:54:24.793Z,100433.31
2023-03-16T23:56:58.050Z,100450.50
2023-03-16T23:59:29.236Z,100443.75
